Terminal Aerodrome Forecast
Issued by NWS

Current Version | Previous Version | Text Only | Print | Product List | Glossary On
Versions: 1 2 3 4 5 6 7 8 9 10 11 12 13
000
FTUS44 KOUN 281124
TAFWWR
TAF
KWWR 281124Z 2812/2912 33012KT P6SM BKN100
     FM281800 09008KT P6SM SCT120 BKN250
     FM290100 06009KT P6SM BKN080 PROB30 2901/2903 2SM TSRA OVC035CB
     FM290300 03015KT 3SM TSRA OVC025CB
     FM291000 36018KT 5SM SHRA BKN025=

USA.gov is the U.S. government's official web portal to all federal, state and local government web resources and services.